Ayers, Illinois
Current Conditions -  °F | °C
As of 10:35 AM on Friday 24 Oct 2014 (Local Time) from K3LF Reporting Station
Haze Haze  
Wind Chill: 56°   Ceiling: 200
Heat Index: 56°   Visibility: 3mi
Dew Point: 54°   Wind: 5mph
Humidity: 92%   Direction: 280°W
Pressure: 30.13"   Gusts: NA
Location:  38.895°N, 89.397°W
Report Text: K3LF 241535Z AUTO 28004KT 3SM BR OVC002 13/12 A3013 RMK AO2 T01320120 TSNO
Loading
Personal Weather Stations






























Interactive Weather Map
Tropical Storm Tracking
New forecast layout! Learn more

10-Day Weather Forecast

Advertisements
Track Severe Weather on mobile